Time;durP1;ratioP1;P1;durP2;ratioP2;P2;SDS_P1;SDS_P2;PMS_P1;PMS_P2;Temp;Humidity;BMP_temperature;BMP_pressure;BME280_temperature;BME280_humidity;BME280_pressure;Samples;Min_cycle;Max_cycle;Signal;HPM_P1;HPM_P2
2023/06/01 00:00:35;;;;;;;17.42;10.65;;;11.80;99.90;;;;;;4984079;28;20500;-87
2023/06/01 00:03:06;;;;;;;22.50;12.13;;;11.70;99.90;;;;;;4978637;28;20034;-87
2023/06/01 00:05:32;;;;;;;14.32;11.85;;;11.70;99.90;;;;;;4983015;28;20538;-87
2023/06/01 00:07:57;;;;;;;22.40;12.60;;;11.60;99.90;;;;;;4975133;28;20027;-87
2023/06/01 00:10:23;;;;;;;16.50;10.82;;;11.60;99.90;;;;;;4985642;28;20038;-87
2023/06/01 00:12:48;;;;;;;18.50;12.73;;;11.50;99.90;;;;;;4995535;28;20048;-87
2023/06/01 00:15:14;;;;;;;18.85;10.90;;;11.50;99.90;;;;;;4997955;28;20041;-87
2023/06/01 00:17:39;;;;;;;17.70;11.05;;;11.40;99.90;;;;;;4982403;28;20078;-87
2023/06/01 00:20:08;;;;;;;22.15;13.73;;;11.40;99.90;;;;;;4993742;28;20035;-87
2023/06/01 00:22:38;;;;;;;21.33;13.60;;;11.30;99.90;;;;;;4960670;28;20022;-87
2023/06/01 00:25:07;;;;;;;24.73;14.25;;;11.30;99.90;;;;;;4985724;28;20041;-87
2023/06/01 00:27:33;;;;;;;22.90;13.93;;;11.20;99.90;;;;;;4993349;28;20716;-87
2023/06/01 00:29:58;;;;;;;22.42;14.63;;;11.10;99.90;;;;;;4975310;28;20026;-87
2023/06/01 00:32:24;;;;;;;24.15;14.45;;;11.10;99.90;;;;;;4990127;28;20018;-87
2023/06/01 00:34:49;;;;;;;27.52;14.40;;;11.00;99.90;;;;;;4991465;28;20047;-87
2023/06/01 00:37:15;;;;;;;22.60;13.93;;;10.90;99.90;;;;;;4997264;28;20029;-88
2023/06/01 00:39:40;;;;;;;22.33;13.98;;;10.90;99.90;;;;;;4978649;28;20407;-87
2023/06/01 00:42:06;;;;;;;26.88;15.00;;;10.80;99.90;;;;;;4978170;28;20037;-86
2023/06/01 00:44:31;;;;;;;24.60;14.05;;;10.80;99.90;;;;;;4975987;28;20039;-87
2023/06/01 00:46:59;;;;;;;23.40;14.27;;;10.70;99.90;;;;;;4986806;28;20031;-87
2023/06/01 00:49:25;;;;;;;24.60;14.20;;;10.70;99.90;;;;;;4976934;28;20034;-87
2023/06/01 00:51:51;;;;;;;22.50;13.27;;;10.60;99.90;;;;;;4978576;28;20125;-87
2023/06/01 00:54:17;;;;;;;25.33;13.48;;;10.60;99.90;;;;;;4990439;28;20474;-87
2023/06/01 00:56:43;;;;;;;24.70;13.50;;;10.60;99.90;;;;;;4975332;28;20066;-87
2023/06/01 00:59:09;;;;;;;30.38;13.95;;;10.60;99.90;;;;;;4984019;28;20022;-86
2023/06/01 01:01:36;;;;;;;21.00;12.88;;;10.50;99.90;;;;;;4992630;28;20052;-86
2023/06/01 01:04:02;;;;;;;22.30;13.43;;;10.50;99.90;;;;;;4997509;28;20121;-87
2023/06/01 01:06:28;;;;;;;22.27;12.10;;;10.40;99.90;;;;;;4997201;28;20060;-87
2023/06/01 01:09:21;;;;;;;21.88;13.20;;;10.40;99.90;;;;;;4977713;28;20475;-87
2023/06/01 01:12:03;;;;;;;27.58;12.60;;;10.40;99.90;;;;;;4986319;28;20391;-86
2023/06/01 01:14:43;;;;;;;18.65;11.75;;;10.40;99.90;;;;;;4978008;28;20088;-87
2023/06/01 01:17:19;;;;;;;22.23;11.82;;;10.30;99.90;;;;;;4972019;28;20034;-87
2023/06/01 01:20:00;;;;;;;19.25;11.73;;;10.30;99.90;;;;;;4973002;28;20027;-86
2023/06/01 01:22:34;;;;;;;18.30;10.63;;;10.30;99.90;;;;;;4976866;28;20026;-86
2023/06/01 01:25:21;;;;;;;17.98;10.02;;;10.40;99.90;;;;;;4972474;28;20054;-87
2023/06/01 01:28:15;;;;;;;14.65;9.32;;;10.40;99.90;;;;;;4995842;28;20037;-86
2023/06/01 01:30:42;;;;;;;16.80;9.55;;;10.40;99.90;;;;;;4948729;28;20097;-86
2023/06/01 01:33:08;;;;;;;17.10;9.10;;;10.50;99.90;;;;;;4971221;28;20122;-87
2023/06/01 01:35:35;;;;;;;18.33;9.73;;;10.40;99.90;;;;;;4987438;28;20042;-87
2023/06/01 01:38:00;;;;;;;13.90;7.97;;;10.50;99.90;;;;;;4975399;28;20030;-86
2023/06/01 01:40:26;;;;;;;16.55;7.75;;;10.50;99.90;;;;;;4992725;28;20558;-86
2023/06/01 01:42:53;;;;;;;14.95;8.88;;;10.50;99.90;;;;;;5011457;28;20031;-86
2023/06/01 01:45:19;;;;;;;18.55;8.57;;;10.60;99.90;;;;;;4977421;28;20037;-86
2023/06/01 01:48:03;;;;;;;14.75;7.38;;;10.60;99.90;;;;;;4987376;28;20033;-87
2023/06/01 01:50:41;;;;;;;17.50;8.73;;;10.60;99.90;;;;;;4997985;28;20022;-86
2023/06/01 01:53:09;;;;;;;17.25;7.20;;;10.50;99.90;;;;;;4978822;28;20028;-86
2023/06/01 01:55:36;;;;;;;14.60;7.63;;;10.50;99.90;;;;;;4980310;28;20394;-86
2023/06/01 01:58:03;;;;;;;14.63;8.00;;;10.60;99.90;;;;;;5001674;28;20026;-86
2023/06/01 02:00:30;;;;;;;15.73;7.82;;;10.60;99.90;;;;;;4978166;28;20037;-87
2023/06/01 02:02:55;;;;;;;15.35;7.30;;;10.70;99.90;;;;;;4977009;28;20033;-87
2023/06/01 02:05:21;;;;;;;14.43;7.32;;;10.60;99.90;;;;;;4992090;28;20026;-87
2023/06/01 02:07:47;;;;;;;13.98;7.20;;;10.70;99.90;;;;;;4991079;28;20079;-87
2023/06/01 02:10:12;;;;;;;13.73;6.85;;;10.70;99.90;;;;;;4982177;28;20486;-87
2023/06/01 02:12:38;;;;;;;15.43;8.00;;;10.70;99.90;;;;;;4982976;28;20030;-86
2023/06/01 02:15:05;;;;;;;20.88;7.55;;;10.80;99.90;;;;;;4974738;28;20037;-87
2023/06/01 02:17:32;;;;;;;14.90;6.72;;;10.80;99.90;;;;;;4976487;28;20888;-86
2023/06/01 02:19:58;;;;;;;17.95;7.75;;;10.80;99.90;;;;;;4976587;28;20026;-87
2023/06/01 02:22:23;;;;;;;12.48;7.40;;;10.80;99.90;;;;;;4975843;28;20553;-87
2023/06/01 02:24:49;;;;;;;16.45;7.32;;;10.80;99.90;;;;;;4971456;28;20073;-87
2023/06/01 02:27:14;;;;;;;16.00;7.53;;;10.80;99.90;;;;;;4988426;28;20087;-87
2023/06/01 02:29:40;;;;;;;12.20;6.93;;;10.80;99.90;;;;;;4996517;28;20038;-87
2023/06/01 02:32:06;;;;;;;10.80;5.85;;;10.80;99.90;;;;;;4976264;28;20022;-87
2023/06/01 02:34:31;;;;;;;15.40;7.20;;;10.80;99.90;;;;;;5009799;28;20104;-87
2023/06/01 02:36:57;;;;;;;16.63;7.53;;;10.80;99.90;;;;;;4972486;28;20443;-87
2023/06/01 02:39:23;;;;;;;15.68;7.50;;;10.80;99.90;;;;;;4982807;28;20030;-87
2023/06/01 02:41:49;;;;;;;12.20;6.97;;;10.90;99.90;;;;;;4981938;28;20037;-87
2023/06/01 02:44:14;;;;;;;15.50;6.43;;;10.90;99.90;;;;;;4995223;28;20044;-87
2023/06/01 02:46:40;;;;;;;9.80;6.20;;;10.90;99.90;;;;;;4995525;28;20029;-87
2023/06/01 02:49:06;;;;;;;17.02;8.02;;;10.90;99.90;;;;;;4982104;28;20030;-87
2023/06/01 02:51:31;;;;;;;12.13;5.68;;;10.90;99.90;;;;;;4971389;28;20015;-87
2023/06/01 02:53:57;;;;;;;13.23;7.00;;;10.90;99.90;;;;;;4967548;28;20368;-87
2023/06/01 02:56:22;;;;;;;15.13;6.70;;;10.90;99.90;;;;;;4976444;28;20392;-87
2023/06/01 02:58:48;;;;;;;17.58;7.78;;;10.90;99.90;;;;;;4972696;28;20034;-87
2023/06/01 03:01:14;;;;;;;13.98;7.32;;;10.90;99.90;;;;;;4993231;28;20026;-87
2023/06/01 03:03:41;;;;;;;19.42;8.07;;;10.90;99.90;;;;;;4968084;28;20042;-87
2023/06/01 03:06:08;;;;;;;16.38;7.30;;;10.90;99.90;;;;;;4972091;28;20045;-87
2023/06/01 03:08:35;;;;;;;15.25;8.35;;;10.90;99.90;;;;;;4974004;28;20034;-87
2023/06/01 03:11:00;;;;;;;19.05;8.95;;;10.90;99.90;;;;;;4979479;28;20113;-87
2023/06/01 03:13:26;;;;;;;16.08;8.27;;;10.90;99.90;;;;;;4979594;28;20054;-87
2023/06/01 03:15:51;;;;;;;15.52;7.35;;;10.90;99.90;;;;;;4978619;28;20030;-87
2023/06/01 03:18:17;;;;;;;12.38;7.65;;;10.90;99.90;;;;;;4978821;28;20376;-87
2023/06/01 03:20:43;;;;;;;16.25;7.88;;;10.90;99.90;;;;;;4970475;28;20050;-88
2023/06/01 03:23:08;;;;;;;16.50;8.65;;;10.90;99.90;;;;;;4975708;28;20042;-87
2023/06/01 03:25:34;;;;;;;16.63;8.40;;;10.80;99.90;;;;;;4973045;28;20026;-87
2023/06/01 03:28:00;;;;;;;17.85;8.15;;;10.90;99.90;;;;;;4970591;28;20022;-87
2023/06/01 03:30:25;;;;;;;18.27;9.57;;;10.80;99.90;;;;;;4975963;28;20066;-87
2023/06/01 03:32:51;;;;;;;22.08;8.30;;;10.90;99.90;;;;;;4973712;28;20382;-87
2023/06/01 03:35:17;;;;;;;15.43;8.82;;;10.90;99.90;;;;;;4969638;28;20521;-87
2023/06/01 03:37:45;;;;;;;13.98;7.68;;;10.80;99.90;;;;;;4980940;28;20033;-87
2023/06/01 03:40:11;;;;;;;15.52;8.45;;;10.80;99.90;;;;;;4979421;28;20026;-87
2023/06/01 03:42:39;;;;;;;18.23;8.45;;;10.80;99.90;;;;;;4988967;28;20050;-86
2023/06/01 03:45:05;;;;;;;15.93;8.85;;;10.80;99.90;;;;;;4996761;28;20044;-87
2023/06/01 03:47:31;;;;;;;16.10;8.93;;;10.80;99.90;;;;;;4994025;28;20030;-87
2023/06/01 03:49:58;;;;;;;15.38;7.65;;;10.80;99.90;;;;;;4976876;28;20092;-87
2023/06/01 03:52:25;;;;;;;12.98;6.95;;;10.80;99.90;;;;;;4975081;28;20050;-87
2023/06/01 03:54:51;;;;;;;15.35;8.25;;;10.80;99.90;;;;;;4987048;28;20018;-87
2023/06/01 03:57:16;;;;;;;18.52;8.20;;;10.80;99.90;;;;;;4975240;28;20390;-87
2023/06/01 03:59:42;;;;;;;14.30;7.63;;;10.70;99.90;;;;;;4979215;28;20023;-87
2023/06/01 04:02:10;;;;;;;12.77;7.93;;;10.70;99.90;;;;;;4979642;28;20105;-87
2023/06/01 04:04:36;;;;;;;13.60;7.45;;;10.70;99.90;;;;;;4980921;28;20507;-86
2023/06/01 04:07:03;;;;;;;14.23;7.70;;;10.70;99.90;;;;;;4969376;28;20030;-87
2023/06/01 04:09:29;;;;;;;20.52;7.53;;;10.70;99.90;;;;;;4982573;28;20405;-87
2023/06/01 04:11:55;;;;;;;12.98;7.20;;;10.70;99.90;;;;;;4998544;28;20025;-87
2023/06/01 04:14:21;;;;;;;10.05;6.30;;;10.70;99.90;;;;;;4988122;28;20041;-87
2023/06/01 04:16:47;;;;;;;17.38;8.02;;;10.70;99.90;;;;;;4976027;28;20030;-87
2023/06/01 04:19:12;;;;;;;11.95;6.65;;;10.70;99.90;;;;;;4986781;28;20029;-87
2023/06/01 04:21:38;;;;;;;17.42;7.80;;;10.60;99.90;;;;;;4991116;28;20072;-86
2023/06/01 04:24:04;;;;;;;18.00;7.75;;;10.70;99.90;;;;;;4996746;28;20673;-86
2023/06/01 04:26:31;;;;;;;12.93;6.75;;;10.70;99.90;;;;;;4964560;28;20073;-87
2023/06/01 04:28:58;;;;;;;17.83;7.57;;;10.70;99.90;;;;;;4962843;28;20030;-87
2023/06/01 04:31:24;;;;;;;11.95;6.72;;;10.70;99.90;;;;;;4978220;28;20475;-86
2023/06/01 04:33:52;;;;;;;13.13;6.97;;;10.80;99.90;;;;;;4980286;28;20035;-87
2023/06/01 04:36:21;;;;;;;16.65;7.75;;;10.90;99.90;;;;;;4984407;28;20030;-87
2023/06/01 04:38:52;;;;;;;14.63;6.57;;;11.00;99.90;;;;;;4990368;28;20022;-88
2023/06/01 04:41:20;;;;;;;14.00;6.50;;;11.00;99.90;;;;;;4974774;28;20034;-87
2023/06/01 04:43:51;;;;;;;15.15;7.30;;;11.10;99.90;;;;;;4960071;28;20035;-87
2023/06/01 04:46:26;;;;;;;14.13;6.60;;;11.10;99.90;;;;;;4965785;28;20526;-87
2023/06/01 04:48:52;;;;;;;14.18;7.20;;;11.10;99.90;;;;;;4978642;28;20029;-87
2023/06/01 04:51:23;;;;;;;12.20;6.53;;;11.10;99.90;;;;;;4988820;28;20031;-86
2023/06/01 04:53:51;;;;;;;16.33;7.22;;;11.10;99.90;;;;;;4978976;28;20030;-87
2023/06/01 04:56:24;;;;;;;15.15;6.25;;;11.20;99.90;;;;;;4978608;28;20027;-87
2023/06/01 04:58:51;;;;;;;13.25;6.68;;;11.20;99.90;;;;;;4975594;28;20038;-87
2023/06/01 05:01:17;;;;;;;14.18;6.75;;;11.10;99.90;;;;;;4981843;28;20033;-87
2023/06/01 05:03:44;;;;;;;17.17;7.97;;;11.20;99.90;;;;;;4994116;28;20042;-87
2023/06/01 05:06:11;;;;;;;15.20;7.65;;;11.30;99.90;;;;;;4977573;28;20023;-87
2023/06/01 05:08:38;;;;;;;14.20;7.13;;;11.30;99.90;;;;;;4995221;28;20037;-87
2023/06/01 05:11:03;;;;;;;11.73;7.13;;;11.40;99.90;;;;;;4975345;28;20034;-87
2023/06/01 05:13:29;;;;;;;19.27;7.90;;;11.50;99.90;;;;;;4967568;28;20026;-87
2023/06/01 05:15:55;;;;;;;15.95;6.78;;;11.60;99.90;;;;;;4968197;28;20054;-87
2023/06/01 05:18:20;;;;;;;14.13;7.78;;;11.70;99.90;;;;;;4972206;28;20458;-87
2023/06/01 05:20:46;;;;;;;11.48;6.65;;;11.70;99.90;;;;;;4972406;28;20050;-87
2023/06/01 05:23:11;;;;;;;16.45;8.13;;;11.70;99.90;;;;;;4985762;28;20069;-87
2023/06/01 05:25:37;;;;;;;10.98;6.63;;;11.70;99.90;;;;;;4976053;28;20031;-88
2023/06/01 05:28:03;;;;;;;14.82;6.85;;;11.70;99.90;;;;;;4971458;28;20041;-87
2023/06/01 05:30:28;;;;;;;11.15;6.20;;;11.70;99.90;;;;;;4973567;28;20022;-87
2023/06/01 05:32:54;;;;;;;15.80;6.60;;;11.70;99.90;;;;;;4974996;28;20034;-87
2023/06/01 05:35:20;;;;;;;10.63;6.03;;;11.70;99.90;;;;;;4995360;28;20070;-87
2023/06/01 05:37:45;;;;;;;14.63;7.05;;;11.80;99.90;;;;;;4974682;28;20034;-86
2023/06/01 05:40:11;;;;;;;14.23;6.40;;;11.80;99.90;;;;;;4984425;28;20081;-87
2023/06/01 05:42:36;;;;;;;17.15;7.85;;;11.90;99.90;;;;;;4974792;28;20121;-87
2023/06/01 05:45:02;;;;;;;13.50;6.93;;;11.90;99.90;;;;;;4977088;28;20049;-87
2023/06/01 05:47:28;;;;;;;15.10;7.68;;;11.90;99.90;;;;;;4977005;28;20489;-87
2023/06/01 05:49:54;;;;;;;14.90;7.18;;;12.00;99.90;;;;;;4969057;28;20125;-88
2023/06/01 05:52:19;;;;;;;13.75;5.82;;;12.10;99.90;;;;;;4966623;28;20038;-88
2023/06/01 05:54:45;;;;;;;16.33;6.60;;;12.30;99.90;;;;;;4994032;28;20105;-88
2023/06/01 05:57:10;;;;;;;15.32;6.28;;;12.60;99.90;;;;;;4983579;28;20052;-88
2023/06/01 05:59:36;;;;;;;13.90;6.90;;;12.80;99.90;;;;;;4970288;28;20026;-88
2023/06/01 06:02:01;;;;;;;11.77;6.35;;;13.00;99.90;;;;;;4963815;28;20027;-88
2023/06/01 06:04:27;;;;;;;14.30;6.18;;;13.00;99.90;;;;;;4957768;28;20097;-88
2023/06/01 06:06:53;;;;;;;12.48;6.30;;;13.00;99.90;;;;;;4965619;28;20105;-88
2023/06/01 06:09:19;;;;;;;15.05;6.35;;;13.00;99.90;;;;;;4973382;28;20073;-89
2023/06/01 06:11:44;;;;;;;12.88;6.43;;;13.00;99.90;;;;;;4969035;28;20030;-89
2023/06/01 06:14:11;;;;;;;13.18;7.07;;;13.00;99.90;;;;;;4964818;28;20138;-88
2023/06/01 06:16:37;;;;;;;13.40;7.30;;;13.10;99.90;;;;;;4972692;28;20061;-89
2023/06/01 06:19:02;;;;;;;15.25;7.15;;;13.10;99.90;;;;;;4974770;28;20030;-89
2023/06/01 06:21:28;;;;;;;12.25;6.07;;;13.20;99.90;;;;;;4979946;28;20030;-88
2023/06/01 06:23:58;;;;;;;14.38;6.30;;;13.30;99.90;;;;;;4966762;28;20092;-89
2023/06/01 06:26:26;;;;;;;19.17;6.93;;;13.30;99.90;;;;;;4978362;28;20033;-89
2023/06/01 06:28:51;;;;;;;11.02;6.55;;;13.20;99.90;;;;;;4973431;28;20033;-89
2023/06/01 06:31:17;;;;;;;10.98;6.22;;;13.20;99.90;;;;;;4965271;28;20026;-88
2023/06/01 06:33:42;;;;;;;20.25;7.80;;;13.20;99.90;;;;;;4964899;28;20467;-88
2023/06/01 06:36:08;;;;;;;17.65;7.32;;;13.30;99.90;;;;;;4977890;28;20023;-87
2023/06/01 06:38:33;;;;;;;13.90;6.82;;;13.30;99.90;;;;;;4976910;28;20037;-88
2023/06/01 06:40:59;;;;;;;15.50;7.13;;;13.40;99.90;;;;;;4977555;28;20117;-88
2023/06/01 06:43:25;;;;;;;18.98;7.90;;;13.50;99.90;;;;;;4970601;28;20039;-88
2023/06/01 06:45:51;;;;;;;11.48;6.13;;;13.60;99.90;;;;;;4969540;28;20089;-88
2023/06/01 06:48:16;;;;;;;11.55;6.57;;;13.80;99.90;;;;;;4966169;28;20077;-88
2023/06/01 06:50:44;;;;;;;12.75;6.43;;;14.10;99.90;;;;;;4982830;28;20030;-89
2023/06/01 06:53:10;;;;;;;12.18;6.85;;;14.20;99.90;;;;;;4986133;28;20034;-88
2023/06/01 06:55:36;;;;;;;16.15;6.70;;;14.20;99.90;;;;;;4973552;28;20054;-88
2023/06/01 06:58:01;;;;;;;12.48;6.63;;;14.20;99.90;;;;;;4976058;28;20057;-89
2023/06/01 07:00:27;;;;;;;14.73;5.78;;;14.10;99.90;;;;;;4984609;28;20027;-89
2023/06/01 07:02:53;;;;;;;14.32;6.78;;;14.00;99.90;;;;;;4959430;28;20041;-89
2023/06/01 07:05:19;;;;;;;17.50;7.43;;;13.80;99.90;;;;;;4974359;28;20034;-89
2023/06/01 07:07:44;;;;;;;12.27;5.68;;;13.80;99.90;;;;;;4974806;28;20406;-89
2023/06/01 07:10:10;;;;;;;11.73;6.18;;;13.80;99.90;;;;;;4979948;28;20033;-90
2023/06/01 07:12:36;;;;;;;11.98;5.68;;;13.80;99.90;;;;;;4996104;28;20030;-87
2023/06/01 07:15:02;;;;;;;12.32;6.68;;;13.70;99.90;;;;;;4975640;28;20026;-87
2023/06/01 07:17:27;;;;;;;17.15;7.00;;;13.70;99.90;;;;;;4974264;28;20054;-86
2023/06/01 07:19:53;;;;;;;11.32;7.03;;;13.60;99.90;;;;;;4971339;28;20041;-87
2023/06/01 07:22:20;;;;;;;14.70;6.75;;;13.60;99.90;;;;;;4967807;28;20031;-85
2023/06/01 07:24:47;;;;;;;11.88;5.85;;;13.70;99.90;;;;;;4975480;28;20040;-87
2023/06/01 07:27:13;;;;;;;14.57;6.20;;;13.90;99.90;;;;;;4985519;28;20033;-87
2023/06/01 07:29:39;;;;;;;12.10;6.10;;;14.10;99.90;;;;;;4997576;28;20041;-87
2023/06/01 07:32:05;;;;;;;13.93;6.07;;;14.30;99.90;;;;;;4975755;28;20411;-87
2023/06/01 07:34:33;;;;;;;13.98;6.43;;;14.50;99.90;;;;;;4983523;28;20106;-87
2023/06/01 07:36:59;;;;;;;11.98;6.15;;;14.70;99.90;;;;;;4976250;28;20030;-88
2023/06/01 07:39:25;;;;;;;11.60;6.00;;;14.80;99.90;;;;;;4973423;28;20041;-88
2023/06/01 07:41:53;;;;;;;11.25;5.85;;;14.90;99.90;;;;;;4985209;28;20026;-88
2023/06/01 07:44:20;;;;;;;11.48;6.13;;;14.90;99.90;;;;;;4962887;28;20050;-88
2023/06/01 07:46:46;;;;;;;13.55;6.53;;;14.80;99.90;;;;;;4970363;28;20045;-88
2023/06/01 07:49:15;;;;;;;12.88;5.75;;;14.80;99.90;;;;;;4976977;28;20027;-88
2023/06/01 07:51:42;;;;;;;13.02;6.43;;;14.80;99.90;;;;;;4977253;28;20589;-88
2023/06/01 07:54:08;;;;;;;11.88;6.05;;;14.90;99.90;;;;;;4969486;28;20038;-88
2023/06/01 07:56:34;;;;;;;16.35;7.22;;;15.00;99.90;;;;;;4962436;28;20027;-88
2023/06/01 07:58:59;;;;;;;12.27;6.18;;;15.20;99.90;;;;;;4978920;28;20037;-88
2023/06/01 08:01:25;;;;;;;13.45;6.68;;;15.30;99.90;;;;;;4978066;28;20023;-88
2023/06/01 08:03:51;;;;;;;14.23;6.68;;;15.40;99.90;;;;;;4974337;28;20057;-88
2023/06/01 08:06:17;;;;;;;10.07;5.47;;;15.60;99.90;;;;;;4971741;28;20030;-88
2023/06/01 08:08:43;;;;;;;11.60;5.35;;;15.90;99.90;;;;;;4965583;28;20031;-88
2023/06/01 08:11:09;;;;;;;11.13;4.68;;;16.10;99.90;;;;;;4979328;28;20022;-89
2023/06/01 08:13:36;;;;;;;20.52;8.27;;;16.20;99.90;;;;;;4982387;28;20056;-88
2023/06/01 08:16:02;;;;;;;17.75;6.30;;;16.00;99.90;;;;;;4971792;28;20018;-87
2023/06/01 08:18:28;;;;;;;9.82;5.60;;;15.80;99.90;;;;;;4974216;28;20026;-87
2023/06/01 08:20:55;;;;;;;11.50;5.78;;;15.70;99.90;;;;;;4978804;28;20031;-88
2023/06/01 08:23:22;;;;;;;12.05;5.63;;;15.70;99.90;;;;;;4980500;28;20133;-86
2023/06/01 08:25:48;;;;;;;16.35;5.22;;;15.70;99.90;;;;;;4980257;28;20026;-88
2023/06/01 08:28:14;;;;;;;11.82;4.90;;;15.60;99.90;;;;;;4984900;28;20501;-89
2023/06/01 08:30:39;;;;;;;9.02;4.82;;;15.60;99.90;;;;;;4985450;28;20110;-88
2023/06/01 08:33:05;;;;;;;11.10;5.40;;;15.70;99.90;;;;;;4980652;28;20031;-90
2023/06/01 08:35:33;;;;;;;11.30;5.72;;;15.80;99.90;;;;;;4982074;28;20054;-89
2023/06/01 08:37:59;;;;;;;20.48;6.63;;;15.90;99.90;;;;;;4977562;28;20467;-86
2023/06/01 08:40:25;;;;;;;11.57;4.93;;;16.00;99.90;;;;;;4992592;28;20026;-86
2023/06/01 08:43:09;;;;;;;16.23;5.70;;;16.10;99.90;;;;;;4997068;28;20073;-86
2023/06/01 08:45:37;;;;;;;14.40;5.50;;;16.30;99.90;;;;;;4977580;28;20141;-87
2023/06/01 08:48:08;;;;;;;13.77;5.32;;;16.30;99.90;;;;;;4988059;28;20026;-87
2023/06/01 08:50:34;;;;;;;11.57;4.80;;;16.40;99.90;;;;;;4997783;28;20033;-86
2023/06/01 08:53:01;;;;;;;13.82;6.07;;;16.40;99.90;;;;;;4977750;28;20022;-86
2023/06/01 08:55:26;;;;;;;19.17;5.65;;;16.60;99.90;;;;;;4969898;28;20065;-87
2023/06/01 08:57:56;;;;;;;18.55;5.63;;;16.70;99.90;;;;;;4979115;28;20046;-87
2023/06/01 09:00:22;;;;;;;10.75;4.82;;;16.70;99.90;;;;;;4988555;28;20109;-87
2023/06/01 09:02:48;;;;;;;14.93;7.15;;;16.70;99.90;;;;;;4997926;28;20026;-87
2023/06/01 09:05:14;;;;;;;16.58;6.20;;;16.80;99.90;;;;;;4991589;28;20038;-87
2023/06/01 09:07:40;;;;;;;12.20;5.50;;;16.80;99.90;;;;;;4997750;28;20116;-87
2023/06/01 09:10:06;;;;;;;11.27;6.25;;;16.80;99.90;;;;;;4985182;28;20034;-86
2023/06/01 09:12:33;;;;;;;25.75;7.60;;;16.80;99.90;;;;;;4958877;28;20403;-87
2023/06/01 09:15:13;;;;;;;11.48;5.40;;;16.80;99.90;;;;;;4982645;28;20026;-89
2023/06/01 09:17:40;;;;;;;11.13;5.95;;;16.90;99.90;;;;;;4958918;28;20031;-87
2023/06/01 09:20:06;;;;;;;14.02;6.05;;;17.00;99.90;;;;;;4973646;28;20022;-87
2023/06/01 09:22:42;;;;;;;16.60;5.18;;;17.10;99.90;;;;;;4985380;28;20046;-89
2023/06/01 09:25:09;;;;;;;9.43;5.53;;;17.10;99.90;;;;;;4972221;28;20035;-89
2023/06/01 09:27:46;;;;;;;22.63;6.47;;;17.10;99.90;;;;;;4970752;28;20058;-88
2023/06/01 09:30:13;;;;;;;22.83;6.20;;;17.20;99.90;;;;;;4960128;28;20553;-88
2023/06/01 09:32:38;;;;;;;13.98;6.30;;;17.30;99.90;;;;;;4971924;28;20407;-88
2023/06/01 09:35:07;;;;;;;11.68;5.07;;;17.50;99.90;;;;;;4979908;28;20502;-88
2023/06/01 09:37:36;;;;;;;11.63;4.57;;;17.50;99.90;;;;;;4958271;28;20043;-89
2023/06/01 09:40:15;;;;;;;11.10;4.82;;;17.50;99.90;;;;;;4965686;28;20026;-89
2023/06/01 09:42:41;;;;;;;14.20;5.55;;;17.50;99.90;;;;;;4978380;28;20514;-88
2023/06/01 09:45:21;;;;;;;11.32;6.10;;;17.60;99.90;;;;;;4979845;28;20038;-89
2023/06/01 09:47:48;;;;;;;12.07;5.80;;;17.80;99.90;;;;;;4979428;28;20022;-88
2023/06/01 09:50:37;;;;;;;11.57;6.35;;;17.80;99.90;;;;;;4978810;28;20125;-88
2023/06/01 09:53:06;;;;;;;11.20;4.85;;;17.90;99.90;;;;;;4979598;28;20029;-88
2023/06/01 09:55:32;;;;;;;12.60;5.30;;;17.90;99.90;;;;;;4975439;28;20041;-88
2023/06/01 09:58:18;;;;;;;10.13;4.78;;;17.90;99.90;;;;;;4960327;28;20117;-87
2023/06/01 10:00:46;;;;;;;11.45;5.30;;;17.90;99.90;;;;;;4975359;28;20022;-88
2023/06/01 10:03:13;;;;;;;10.38;4.35;;;18.00;99.40;;;;;;4976021;28;20043;-88
2023/06/01 10:05:39;;;;;;;8.95;4.40;;;18.20;99.00;;;;;;4998533;28;20125;-87
2023/06/01 10:08:05;;;;;;;10.07;4.80;;;18.20;98.90;;;;;;4988243;28;20054;-88
2023/06/01 10:10:31;;;;;;;11.18;4.65;;;18.30;98.90;;;;;;4961019;28;20173;-87
2023/06/01 10:12:57;;;;;;;17.67;5.32;;;18.40;98.60;;;;;;4978959;28;20031;-87
2023/06/01 10:15:22;;;;;;;9.52;4.80;;;18.50;98.10;;;;;;4984261;28;20297;-88
2023/06/01 10:17:49;;;;;;;13.27;5.38;;;18.50;98.20;;;;;;4983905;28;20137;-87
2023/06/01 10:20:15;;;;;;;13.05;4.93;;;18.60;97.90;;;;;;4975452;28;20019;-87
2023/06/01 10:22:42;;;;;;;11.00;5.18;;;18.60;97.80;;;;;;4980846;28;20029;-87
2023/06/01 10:25:11;;;;;;;6.85;3.97;;;18.80;96.70;;;;;;4978583;28;20037;-88
2023/06/01 10:27:41;;;;;;;12.45;5.90;;;18.90;96.70;;;;;;4978902;28;20065;-88
2023/06/01 10:30:09;;;;;;;9.70;4.88;;;19.00;96.60;;;;;;4977511;28;20022;-87
2023/06/01 10:32:37;;;;;;;11.70;4.75;;;19.00;96.00;;;;;;4959768;28;20118;-88
2023/06/01 10:35:12;;;;;;;13.02;3.95;;;19.10;96.10;;;;;;4977876;28;20046;-87
2023/06/01 10:37:38;;;;;;;14.13;4.20;;;19.20;96.00;;;;;;4981996;28;20018;-87
2023/06/01 10:40:15;;;;;;;12.80;4.35;;;19.10;95.70;;;;;;4984325;28;20048;-87
2023/06/01 10:42:41;;;;;;;9.50;3.80;;;19.10;95.70;;;;;;4978092;28;20022;-87
2023/06/01 10:45:07;;;;;;;8.43;3.80;;;19.20;96.10;;;;;;4978668;28;20570;-87
2023/06/01 10:47:32;;;;;;;11.45;5.32;;;19.20;95.80;;;;;;4999052;28;20133;-87
2023/06/01 10:49:58;;;;;;;7.78;4.20;;;19.20;95.60;;;;;;4998182;28;20033;-88
2023/06/01 10:52:29;;;;;;;10.90;4.28;;;19.20;95.90;;;;;;5015514;28;20037;-87
2023/06/01 10:55:10;;;;;;;8.13;3.63;;;19.30;95.70;;;;;;4988552;28;20509;-88
2023/06/01 10:57:46;;;;;;;12.77;5.05;;;19.40;95.40;;;;;;4998354;28;20025;-87
2023/06/01 11:00:20;;;;;;;36.45;4.97;;;19.50;95.10;;;;;;4986320;28;20034;-87
2023/06/01 11:03:03;;;;;;;9.07;4.28;;;19.60;94.90;;;;;;4959339;28;20019;-88
2023/06/01 11:05:46;;;;;;;9.70;3.72;;;19.60;94.70;;;;;;4977015;28;20034;-87
2023/06/01 11:08:27;;;;;;;11.82;4.65;;;19.70;94.20;;;;;;4977331;28;20037;-88
2023/06/01 11:10:58;;;;;;;9.02;4.05;;;19.70;94.30;;;;;;4997900;28;20022;-87
2023/06/01 11:13:31;;;;;;;10.13;4.40;;;19.70;94.70;;;;;;4979565;28;20033;-87
2023/06/01 11:16:22;;;;;;;10.25;4.35;;;19.90;94.10;;;;;;4983622;28;20486;-87
2023/06/01 11:19:02;;;;;;;7.97;3.38;;;19.90;94.00;;;;;;4965602;28;20046;-88
2023/06/01 11:21:35;;;;;;;29.92;4.43;;;20.00;94.20;;;;;;4978592;28;20027;-88
2023/06/01 11:24:05;;;;;;;10.13;4.20;;;20.00;93.90;;;;;;4985543;28;20121;-87
2023/06/01 11:26:33;;;;;;;19.73;5.18;;;20.00;93.20;;;;;;5001590;28;20014;-87
2023/06/01 11:29:15;;;;;;;12.07;3.97;;;20.00;92.40;;;;;;4963070;28;20050;-88
2023/06/01 11:31:48;;;;;;;11.50;4.40;;;19.90;92.80;;;;;;4986145;28;20018;-88
2023/06/01 11:34:18;;;;;;;15.63;4.38;;;20.00;92.30;;;;;;4980690;28;20113;-88
2023/06/01 11:36:48;;;;;;;8.55;3.95;;;19.90;92.30;;;;;;4983691;28;20022;-88
2023/06/01 11:39:24;;;;;;;8.45;3.85;;;20.00;92.40;;;;;;4971891;28;20030;-87
2023/06/01 11:42:06;;;;;;;7.68;3.55;;;20.10;92.30;;;;;;4980579;28;20053;-91
2023/06/01 11:44:37;;;;;;;12.10;5.15;;;20.10;91.90;;;;;;4978509;28;20034;-87
2023/06/01 11:47:05;;;;;;;10.65;4.25;;;20.20;92.10;;;;;;4976899;28;20077;-87
2023/06/01 11:49:31;;;;;;;13.05;4.72;;;20.20;92.10;;;;;;4970454;28;20145;-88
2023/06/01 11:51:57;;;;;;;9.25;4.55;;;20.30;92.00;;;;;;4978173;28;20564;-87
2023/06/01 11:54:24;;;;;;;11.00;4.38;;;20.40;92.00;;;;;;4990862;28;20470;-89
2023/06/01 11:56:51;;;;;;;8.32;3.72;;;20.50;92.20;;;;;;4966381;28;20027;-88
2023/06/01 11:59:17;;;;;;;9.40;3.95;;;20.60;92.00;;;;;;4971796;28;20041;-88
2023/06/01 12:01:44;;;;;;;9.48;4.97;;;20.70;92.20;;;;;;4981120;28;20105;-88
2023/06/01 12:04:18;;;;;;;11.85;4.25;;;20.80;91.50;;;;;;4968858;28;20138;-87
2023/06/01 12:06:45;;;;;;;30.27;7.03;;;20.90;91.00;;;;;;4968455;28;20035;-87
2023/06/01 12:09:13;;;;;;;11.90;5.93;;;20.70;90.60;;;;;;4962270;28;20031;-87
2023/06/01 12:11:40;;;;;;;10.15;4.95;;;20.60;90.90;;;;;;4961012;28;20117;-87
2023/06/01 12:14:06;;;;;;;11.65;4.97;;;20.50;91.40;;;;;;4985302;28;20553;-88
2023/06/01 12:16:51;;;;;;;10.15;4.03;;;20.60;91.30;;;;;;4974327;28;20030;-88
2023/06/01 12:19:17;;;;;;;12.65;4.60;;;20.70;91.30;;;;;;4974154;28;20026;-89
2023/06/01 12:21:49;;;;;;;9.48;4.82;;;20.80;91.20;;;;;;4963032;28;20435;-89
2023/06/01 12:24:14;;;;;;;10.63;5.68;;;21.00;90.80;;;;;;4980388;28;20042;-89
2023/06/01 12:26:40;;;;;;;9.13;5.07;;;20.90;90.60;;;;;;4979927;28;20069;-89
2023/06/01 12:29:06;;;;;;;13.23;6.15;;;20.80;90.20;;;;;;4991478;28;20434;-88
2023/06/01 12:31:32;;;;;;;11.77;6.65;;;20.80;90.30;;;;;;4978772;28;20033;-88
2023/06/01 12:33:57;;;;;;;10.80;6.60;;;20.80;90.30;;;;;;4979366;28;20495;-88
2023/06/01 12:36:31;;;;;;;12.60;5.45;;;20.80;90.40;;;;;;4986509;28;20379;-88
2023/06/01 12:38:58;;;;;;;10.80;6.80;;;20.70;90.60;;;;;;4976002;28;20394;-89